createdAt,value
2022-08-18T00:00:24.007Z,20.42
2022-08-18T00:03:27.632Z,19.90
2022-08-18T00:06:28.035Z,19.90
2022-08-18T00:09:13.036Z,20.90
2022-08-18T00:12:08.653Z,21.52
2022-08-18T00:14:57.046Z,21.17
2022-08-18T00:17:43.592Z,21.02
2022-08-18T00:20:31.698Z,21.25
2022-08-18T00:23:13.660Z,22.48
2022-08-18T00:26:03.655Z,22.25
2022-08-18T00:28:48.037Z,22.38
2022-08-18T00:31:37.967Z,22.27
2022-08-18T00:34:19.814Z,22.02
2022-08-18T00:37:11.676Z,22.60
2022-08-18T00:39:53.407Z,21.88
2022-08-18T00:42:50.772Z,23.17
2022-08-18T00:45:37.927Z,21.30
2022-08-18T00:48:26.126Z,23.70
2022-08-18T00:51:15.240Z,24.58
2022-08-18T00:54:14.391Z,22.88
2022-08-18T00:57:01.780Z,21.98
2022-08-18T01:00:05.439Z,22.02
2022-08-18T01:02:52.838Z,23.30
2022-08-18T01:05:49.731Z,23.02
2022-08-18T01:08:31.025Z,23.77
2022-08-18T01:11:18.765Z,22.95
2022-08-18T01:14:07.094Z,25.20
2022-08-18T01:17:13.719Z,24.65
2022-08-18T01:20:20.729Z,25.15
2022-08-18T01:23:19.084Z,24.90
2022-08-18T01:26:09.283Z,23.95
2022-08-18T01:28:51.776Z,25.40
2022-08-18T01:31:54.718Z,25.40
2022-08-18T01:34:36.055Z,26.25
2022-08-18T01:37:26.037Z,24.23
2022-08-18T01:41:11.210Z,24.17
2022-08-18T01:43:15.831Z,23.85
2022-08-18T01:45:56.716Z,25.27
2022-08-18T01:48:48.819Z,27.75
2022-08-18T01:51:40.223Z,26.65
2022-08-18T01:54:30.361Z,25.73
2022-08-18T01:57:11.998Z,25.33
2022-08-18T02:00:03.603Z,26.02
2022-08-18T02:03:02.141Z,24.70
2022-08-18T02:05:56.845Z,24.83
2022-08-18T02:08:43.503Z,25.42
2022-08-18T02:11:33.893Z,23.52
2022-08-18T02:14:27.827Z,24.67
2022-08-18T02:17:20.914Z,26.23
2022-08-18T02:20:01.762Z,26.45
2022-08-18T02:22:49.308Z,23.67
2022-08-18T02:25:31.215Z,24.42
2022-08-18T02:28:18.850Z,25.45
2022-08-18T02:30:59.773Z,26.17
2022-08-18T02:33:52.864Z,23.15
2022-08-18T02:39:45.547Z,23.02
2022-08-18T02:42:26.850Z,24.17
2022-08-18T02:45:19.826Z,23.67
2022-08-18T02:48:01.647Z,26.13
2022-08-18T02:50:56.864Z,25.58
2022-08-18T02:53:37.875Z,28.08
2022-08-18T02:59:33.909Z,26.27
2022-08-18T03:02:21.178Z,26.50
2022-08-18T03:05:01.859Z,27.65
2022-08-18T03:07:54.016Z,26.13
2022-08-18T03:10:37.149Z,25.23
2022-08-18T03:13:25.162Z,24.77
2022-08-18T03:16:05.880Z,27.25
2022-08-18T03:18:55.735Z,27.10
2022-08-18T03:21:39.369Z,27.33
2022-08-18T03:24:28.763Z,26.63
2022-08-18T03:27:13.067Z,25.83
2022-08-18T03:30:00.410Z,26.98
2022-08-18T03:32:45.740Z,26.90
2022-08-18T03:35:32.870Z,29.75
2022-08-18T03:38:14.092Z,26.77
2022-08-18T03:41:03.800Z,28.70
2022-08-18T03:43:51.020Z,25.05
2022-08-18T03:46:39.794Z,26.25
2022-08-18T03:49:21.070Z,26.15
2022-08-18T03:52:08.829Z,27.48
2022-08-18T03:54:53.197Z,25.10
2022-08-18T03:57:40.518Z,25.05
2022-08-18T04:00:23.919Z,26.00
2022-08-18T04:03:12.143Z,24.83
2022-08-18T04:05:53.224Z,25.08
2022-08-18T04:08:41.850Z,24.25
2022-08-18T04:11:22.921Z,25.10
2022-08-18T04:14:19.862Z,24.27
2022-08-18T04:17:07.557Z,23.45
2022-08-18T04:19:50.556Z,25.60
2022-08-18T04:22:37.897Z,26.40
2022-08-18T04:25:20.632Z,25.45
2022-08-18T04:28:09.979Z,26.92
2022-08-18T04:30:51.380Z,26.73
2022-08-18T04:33:37.936Z,24.23
2022-08-18T04:39:32.041Z,25.63
2022-08-18T04:42:13.593Z,23.60
2022-08-18T04:45:01.957Z,23.63
2022-08-18T04:47:49.203Z,25.08
2022-08-18T04:50:37.980Z,24.05
2022-08-18T04:53:37.558Z,23.55
2022-08-18T04:56:36.900Z,25.67
2022-08-18T04:59:19.840Z,23.60
2022-08-18T05:02:14.679Z,22.20
2022-08-18T05:04:57.760Z,26.85
2022-08-18T05:07:51.088Z,25.38
2022-08-18T05:10:32.228Z,20.75
2022-08-18T05:13:27.802Z,23.15
2022-08-18T05:16:27.551Z,24.77
2022-08-18T05:19:15.051Z,25.13
2022-08-18T05:22:05.935Z,26.13
2022-08-18T05:24:47.975Z,22.42
2022-08-18T05:27:41.812Z,23.08
2022-08-18T05:30:22.957Z,23.25
2022-08-18T05:33:10.846Z,22.60
2022-08-18T05:36:01.850Z,24.13
2022-08-18T05:39:00.843Z,21.83
2022-08-18T05:41:49.914Z,21.05
2022-08-18T05:44:41.621Z,24.02
2022-08-18T05:47:38.588Z,21.80
2022-08-18T05:50:29.049Z,20.55
2022-08-18T05:53:20.645Z,20.08
2022-08-18T05:56:31.251Z,20.30
2022-08-18T05:59:11.974Z,23.60
2022-08-18T06:02:12.369Z,19.42
2022-08-18T06:05:25.848Z,22.25
2022-08-18T06:08:19.909Z,22.27
2022-08-18T06:11:01.798Z,21.25
2022-08-18T06:14:00.023Z,21.90
2022-08-18T06:17:06.965Z,22.17
2022-08-18T06:20:12.069Z,20.13
2022-08-18T06:23:28.661Z,22.60
2022-08-18T06:26:21.968Z,18.20
2022-08-18T06:29:53.016Z,21.50
2022-08-18T06:33:08.986Z,20.40
2022-08-18T06:36:02.927Z,21.45
2022-08-18T06:38:57.688Z,21.38
2022-08-18T06:41:51.972Z,18.58
2022-08-18T06:44:45.652Z,17.23
2022-08-18T06:47:35.533Z,16.52
2022-08-18T06:50:43.573Z,20.25
2022-08-18T06:54:01.723Z,18.08
2022-08-18T06:56:46.414Z,18.70
2022-08-18T06:59:43.884Z,17.98
2022-08-18T07:02:42.472Z,18.15
2022-08-18T07:05:40.247Z,17.17
2022-08-18T07:08:36.083Z,17.77
2022-08-18T07:11:44.975Z,17.98
2022-08-18T07:14:34.024Z,17.05
2022-08-18T07:17:42.471Z,16.60
2022-08-18T07:20:41.983Z,17.35
2022-08-18T07:23:38.779Z,18.08
2022-08-18T07:26:30.122Z,16.27
2022-08-18T07:29:23.334Z,15.57
2022-08-18T07:32:32.222Z,15.68
2022-08-18T07:35:19.315Z,16.15
2022-08-18T07:38:54.593Z,18.27
2022-08-18T07:42:11.525Z,17.23
2022-08-18T07:45:09.280Z,17.88
2022-08-18T07:48:27.310Z,15.23
2022-08-18T07:51:54.954Z,16.48
2022-08-18T07:54:49.719Z,16.15
2022-08-18T07:57:51.220Z,17.25
2022-08-18T08:00:59.765Z,15.73
2022-08-18T08:03:47.353Z,14.68
2022-08-18T08:06:39.040Z,13.70
2022-08-18T08:09:39.868Z,15.77
2022-08-18T08:15:33.145Z,15.77
2022-08-18T08:18:29.050Z,15.45
2022-08-18T08:21:20.956Z,15.30
2022-08-18T08:24:26.278Z,15.88
2022-08-18T08:27:20.540Z,14.93
2022-08-18T08:30:03.223Z,15.30
2022-08-18T08:33:09.992Z,13.80
2022-08-18T08:36:13.842Z,13.60
2022-08-18T08:39:12.748Z,13.02
2022-08-18T08:42:31.045Z,12.18
2022-08-18T08:45:42.092Z,13.00
2022-08-18T08:48:30.089Z,12.07
2022-08-18T08:51:43.803Z,10.98
2022-08-18T08:54:31.083Z,11.52
2022-08-18T08:57:20.315Z,11.82
2022-08-18T09:00:04.391Z,9.65
2022-08-18T09:03:15.446Z,11.27
2022-08-18T09:06:01.096Z,8.65
2022-08-18T09:08:55.724Z,8.55
2022-08-18T09:11:36.579Z,8.13
2022-08-18T09:15:03.486Z,7.65
2022-08-18T09:18:06.090Z,8.07
2022-08-18T09:20:59.440Z,7.43
2022-08-18T09:23:47.225Z,8.35
2022-08-18T09:26:42.629Z,9.35
2022-08-18T09:29:46.075Z,7.68
2022-08-18T09:32:36.345Z,6.68
2022-08-18T09:35:37.044Z,6.75
2022-08-18T09:38:48.049Z,6.60
2022-08-18T09:41:45.677Z,7.15
2022-08-18T09:45:40.613Z,6.35
2022-08-18T09:48:44.349Z,5.28
2022-08-18T09:51:48.975Z,6.65
2022-08-18T09:54:35.475Z,7.15
2022-08-18T10:00:42.411Z,5.25
2022-08-18T10:03:35.163Z,5.15
2022-08-18T10:06:30.696Z,5.88
2022-08-18T10:13:21.587Z,6.78
2022-08-18T10:17:21.353Z,6.35
2022-08-18T10:24:29.782Z,7.00
2022-08-18T10:27:04.980Z,6.30
2022-08-18T10:30:03.648Z,6.25
2022-08-18T10:32:52.264Z,6.10
2022-08-18T10:35:46.834Z,6.00
2022-08-18T10:38:58.655Z,5.60
2022-08-18T10:42:37.831Z,6.50
2022-08-18T10:45:32.206Z,6.63
2022-08-18T10:48:41.103Z,5.35
2022-08-18T10:55:47.851Z,4.90
2022-08-18T10:59:06.287Z,4.35
2022-08-18T11:05:28.556Z,3.88
2022-08-18T11:08:28.069Z,4.10
2022-08-18T11:11:37.372Z,5.10
2022-08-18T11:15:22.623Z,4.82
2022-08-18T11:18:30.582Z,4.78
2022-08-18T11:21:45.662Z,5.53
2022-08-18T11:24:38.307Z,4.45
2022-08-18T11:27:37.590Z,4.68
2022-08-18T11:30:31.099Z,5.30
2022-08-18T11:33:38.209Z,4.82
2022-08-18T11:36:26.245Z,4.30
2022-08-18T11:39:24.028Z,3.72
2022-08-18T11:42:21.959Z,3.63
2022-08-18T11:45:24.739Z,3.75
2022-08-18T11:48:23.762Z,3.60
2022-08-18T11:51:36.496Z,3.53
2022-08-18T11:54:25.694Z,3.38
2022-08-18T11:58:00.752Z,3.20
2022-08-18T12:00:47.588Z,4.05
2022-08-18T12:03:53.936Z,3.35
2022-08-18T12:06:44.777Z,4.18
2022-08-18T12:10:16.375Z,3.42
2022-08-18T12:13:08.816Z,3.63
2022-08-18T12:16:25.967Z,4.05
2022-08-18T12:19:12.157Z,3.45
2022-08-18T12:22:11.752Z,3.78
2022-08-18T12:25:01.759Z,4.00
2022-08-18T12:27:52.102Z,3.38
2022-08-18T12:30:35.703Z,3.70
2022-08-18T12:33:34.488Z,3.30
2022-08-18T12:36:32.182Z,3.13
2022-08-18T12:39:24.672Z,3.53
2022-08-18T12:42:10.635Z,3.92
2022-08-18T12:45:05.334Z,3.90
2022-08-18T12:47:56.533Z,3.38
2022-08-18T12:50:58.351Z,3.47
2022-08-18T12:53:59.279Z,2.90
2022-08-18T12:56:53.959Z,3.03
2022-08-18T12:59:44.751Z,3.90
2022-08-18T13:02:36.739Z,2.97
2022-08-18T13:05:30.177Z,3.38
2022-08-18T13:08:38.120Z,3.33
2022-08-18T13:11:34.109Z,3.75
2022-08-18T13:14:38.221Z,3.22
2022-08-18T13:17:34.344Z,3.17
2022-08-18T13:20:21.784Z,3.55
2022-08-18T13:23:18.036Z,3.25
2022-08-18T13:26:08.763Z,2.90
2022-08-18T13:28:58.368Z,3.45
2022-08-18T13:31:55.272Z,3.30
2022-08-18T13:34:45.665Z,4.00
2022-08-18T13:37:34.283Z,3.40
2022-08-18T13:40:31.057Z,3.25
2022-08-18T13:43:17.496Z,3.88
2022-08-18T13:46:09.261Z,3.40
2022-08-18T13:48:57.815Z,3.50
2022-08-18T13:51:51.485Z,3.53
2022-08-18T13:54:40.477Z,3.80
2022-08-18T13:57:31.891Z,3.50
2022-08-18T14:00:29.791Z,2.95
2022-08-18T14:03:42.863Z,3.10
2022-08-18T14:06:56.174Z,3.42
2022-08-18T14:09:48.556Z,3.20
2022-08-18T14:12:35.677Z,3.08
2022-08-18T14:15:36.571Z,3.83
2022-08-18T14:18:28.952Z,3.45
2022-08-18T14:21:31.145Z,3.60
2022-08-18T14:24:38.709Z,4.00
2022-08-18T14:27:21.612Z,3.22
2022-08-18T14:30:20.893Z,3.35
2022-08-18T14:33:03.241Z,2.90
2022-08-18T14:36:07.077Z,3.10
2022-08-18T14:38:56.928Z,3.53
2022-08-18T14:41:54.577Z,3.53
2022-08-18T14:44:40.354Z,3.10
2022-08-18T14:47:38.274Z,3.42
2022-08-18T14:50:21.435Z,4.18
2022-08-18T14:53:20.806Z,3.08
2022-08-18T14:56:04.219Z,4.20
2022-08-18T14:58:54.343Z,3.22
2022-08-18T15:01:42.841Z,3.70
2022-08-18T15:04:38.400Z,3.33
2022-08-18T15:07:35.711Z,3.70
2022-08-18T15:10:28.497Z,3.60
2022-08-18T15:13:10.518Z,3.58
2022-08-18T15:16:01.912Z,3.53
2022-08-18T15:18:43.591Z,3.00
2022-08-18T15:21:50.481Z,3.55
2022-08-18T15:24:54.052Z,3.60
2022-08-18T15:27:47.159Z,2.72
2022-08-18T15:30:33.310Z,3.10
2022-08-18T15:33:24.300Z,3.63
2022-08-18T15:36:05.510Z,4.30
2022-08-18T15:41:49.307Z,3.75
2022-08-18T15:44:37.191Z,3.22
2022-08-18T15:47:20.966Z,5.70
2022-08-18T15:50:21.823Z,4.32
2022-08-18T15:53:10.281Z,4.65
2022-08-18T15:56:04.180Z,4.82
2022-08-18T15:58:46.986Z,4.03
2022-08-18T16:01:39.561Z,4.55
2022-08-18T16:04:23.309Z,5.97
2022-08-18T16:07:14.366Z,4.85
2022-08-18T16:09:55.757Z,4.90
2022-08-18T16:12:45.895Z,5.03
2022-08-18T16:15:41.199Z,4.38
2022-08-18T16:18:29.277Z,4.43
2022-08-18T16:21:13.755Z,4.40
2022-08-18T16:24:03.672Z,4.63
2022-08-18T16:26:44.389Z,4.32
2022-08-18T16:29:31.287Z,4.63
2022-08-18T16:32:16.747Z,3.70
2022-08-18T16:35:06.630Z,3.65
2022-08-18T16:37:47.433Z,4.28
2022-08-18T16:40:37.917Z,3.80
2022-08-18T16:43:19.526Z,4.90
2022-08-18T16:46:09.407Z,4.63
2022-08-18T16:48:50.490Z,4.30
2022-08-18T16:51:39.005Z,4.57
2022-08-18T16:54:20.822Z,3.47
2022-08-18T16:57:08.327Z,5.18
2022-08-18T17:00:34.039Z,4.15
2022-08-18T17:03:41.382Z,3.95
2022-08-18T17:06:28.391Z,3.95
2022-08-18T17:09:19.265Z,3.35
2022-08-18T17:12:01.340Z,3.00
2022-08-18T17:14:55.730Z,3.00
2022-08-18T17:17:42.377Z,3.85
2022-08-18T17:20:24.703Z,3.33
2022-08-18T17:23:15.372Z,3.50
2022-08-18T17:25:58.078Z,3.13
2022-08-18T17:28:52.591Z,3.65
2022-08-18T17:31:34.368Z,3.85
2022-08-18T17:34:24.510Z,2.90
2022-08-18T17:37:08.352Z,3.05
2022-08-18T17:40:04.375Z,3.20
2022-08-18T17:42:48.313Z,3.30
2022-08-18T17:45:41.416Z,3.40
2022-08-18T17:48:31.778Z,3.20
2022-08-18T17:51:34.315Z,3.60
2022-08-18T17:54:36.283Z,3.17
2022-08-18T17:57:28.236Z,3.55
2022-08-18T18:00:20.316Z,3.22
2022-08-18T18:03:10.653Z,3.70
2022-08-18T18:06:09.403Z,2.55
2022-08-18T18:08:58.407Z,2.70
2022-08-18T18:11:48.352Z,2.97
2022-08-18T18:14:46.363Z,2.90
2022-08-18T18:17:32.308Z,3.13
2022-08-18T18:20:21.920Z,4.00
2022-08-18T18:23:24.065Z,3.47
2022-08-18T18:26:37.591Z,2.97
2022-08-18T18:29:38.488Z,3.38
2022-08-18T18:32:38.932Z,3.30
2022-08-18T18:35:27.593Z,3.25
2022-08-18T18:38:39.980Z,3.28
2022-08-18T18:41:40.117Z,3.22
2022-08-18T18:44:39.406Z,2.90
2022-08-18T18:47:51.247Z,2.55
2022-08-18T18:51:03.655Z,3.00
2022-08-18T18:54:27.933Z,3.00
2022-08-18T18:57:42.790Z,3.17
2022-08-18T19:00:59.220Z,3.45
2022-08-18T19:04:13.558Z,3.05
2022-08-18T19:07:20.942Z,3.08
2022-08-18T19:10:31.103Z,2.97
2022-08-18T19:13:26.868Z,4.22
2022-08-18T19:16:36.227Z,3.70
2022-08-18T19:19:38.851Z,3.47
2022-08-18T19:23:07.405Z,4.45
2022-08-18T19:26:07.525Z,3.97
2022-08-18T19:29:13.121Z,3.60
2022-08-18T19:32:25.158Z,3.17
2022-08-18T19:35:21.707Z,3.40
2022-08-18T19:38:31.407Z,3.50
2022-08-18T19:41:43.081Z,3.33
2022-08-18T19:45:00.376Z,3.42
2022-08-18T19:47:58.289Z,3.40
2022-08-18T19:51:18.543Z,3.20
2022-08-18T19:54:45.659Z,3.40
2022-08-18T19:58:13.579Z,3.53
2022-08-18T20:01:02.918Z,3.47
2022-08-18T20:04:09.420Z,3.47
2022-08-18T20:07:07.726Z,3.60
2022-08-18T20:10:20.592Z,3.33
2022-08-18T20:13:36.699Z,3.08
2022-08-18T20:16:49.987Z,3.38
2022-08-18T20:19:57.582Z,3.50
2022-08-18T20:22:58.978Z,3.65
2022-08-18T20:25:53.294Z,3.40
2022-08-18T20:28:49.350Z,3.42
2022-08-18T20:31:51.808Z,3.40
2022-08-18T20:34:44.618Z,3.72
2022-08-18T20:37:33.071Z,3.05
2022-08-18T20:40:46.878Z,3.20
2022-08-18T20:43:44.405Z,5.00
2022-08-18T20:47:06.682Z,3.38
2022-08-18T20:50:16.949Z,3.58
2022-08-18T20:53:20.011Z,4.07
2022-08-18T20:56:31.285Z,3.80
2022-08-18T20:59:27.984Z,3.28
2022-08-18T21:02:39.490Z,4.05
2022-08-18T21:05:36.255Z,3.35
2022-08-18T21:08:27.978Z,3.55
2022-08-18T21:11:32.051Z,3.38
2022-08-18T21:17:43.348Z,3.08
2022-08-18T21:20:32.917Z,3.40
2022-08-18T21:23:44.433Z,3.75
2022-08-18T21:26:32.418Z,3.38
2022-08-18T21:29:24.887Z,3.15
2022-08-18T21:32:42.347Z,3.17
2022-08-18T21:35:39.461Z,3.15
2022-08-18T21:38:36.435Z,3.50
2022-08-18T21:41:42.685Z,3.60
2022-08-18T21:44:34.647Z,4.43
2022-08-18T21:47:37.446Z,4.80
2022-08-18T21:50:27.541Z,5.05
2022-08-18T21:53:33.965Z,4.45
2022-08-18T21:56:28.424Z,4.25
2022-08-18T21:59:19.885Z,4.75
2022-08-18T22:02:03.944Z,4.25
2022-08-18T22:04:54.471Z,4.00
2022-08-18T22:07:35.712Z,4.43
2022-08-18T22:10:52.705Z,4.53
2022-08-18T22:13:53.205Z,4.20
2022-08-18T22:16:51.013Z,3.90
2022-08-18T22:19:39.722Z,3.47
2022-08-18T22:22:44.639Z,3.53
2022-08-18T22:25:31.917Z,3.45
2022-08-18T22:28:12.499Z,3.55
2022-08-18T22:31:00.982Z,3.33
2022-08-18T22:33:42.057Z,3.10
2022-08-18T22:36:35.526Z,3.20
2022-08-18T22:39:20.594Z,2.97
2022-08-18T22:42:10.984Z,2.88
2022-08-18T22:44:51.908Z,2.80
2022-08-18T22:47:43.656Z,3.20
2022-08-18T22:50:28.079Z,2.95
2022-08-18T22:53:14.903Z,3.00
2022-08-18T22:55:56.522Z,2.90
2022-08-18T22:58:46.639Z,2.95
2022-08-18T23:01:27.933Z,3.20
2022-08-18T23:04:16.769Z,2.83
2022-08-18T23:06:58.850Z,3.10
2022-08-18T23:09:47.559Z,3.05
2022-08-18T23:12:29.250Z,2.53
2022-08-18T23:15:23.462Z,2.38
2022-08-18T23:18:12.260Z,2.40
2022-08-18T23:20:58.255Z,2.00
2022-08-18T23:23:46.035Z,2.42
2022-08-18T23:26:26.695Z,2.20
2022-08-18T23:29:21.203Z,2.15
2022-08-18T23:32:05.899Z,1.88
2022-08-18T23:34:53.976Z,2.13
2022-08-18T23:37:34.635Z,2.10
2022-08-18T23:40:23.879Z,2.05
2022-08-18T23:43:04.606Z,1.98
2022-08-18T23:45:56.947Z,2.13
2022-08-18T23:48:38.370Z,2.20
2022-08-18T23:51:36.878Z,2.00
2022-08-18T23:54:24.632Z,2.05
2022-08-18T23:57:12.395Z,1.88
2022-08-18T23:59:54.574Z,1.77
